createdAt,value
2016-05-25T00:00:05.610Z,91.31
2016-05-25T00:01:05.472Z,91.69
2016-05-25T00:02:05.474Z,91.07
2016-05-25T00:03:05.602Z,91.74
2016-05-25T00:04:05.621Z,90.79
2016-05-25T00:05:05.608Z,91.46
2016-05-25T00:06:05.611Z,91.27
2016-05-25T00:07:05.613Z,91.64
2016-05-25T00:08:05.616Z,91.93
2016-05-25T00:09:05.603Z,92.22
2016-05-25T00:10:05.605Z,92.5
2016-05-25T00:11:05.608Z,92.32
2016-05-25T00:12:05.626Z,92.03
2016-05-25T00:13:05.613Z,91.55
2016-05-25T00:14:05.632Z,92.5
2016-05-25T00:15:05.618Z,92.5
2016-05-25T00:16:06.138Z,92.22
2016-05-25T00:17:05.656Z,92.32
2016-05-25T00:18:05.627Z,92.32
2016-05-25T00:19:05.614Z,92.32
2016-05-25T00:20:05.617Z,92.36
2016-05-25T00:21:05.620Z,92.17
2016-05-25T00:22:05.622Z,92.17
2016-05-25T00:23:05.609Z,91.88
2016-05-25T00:24:05.612Z,91.36
2016-05-25T00:25:05.615Z,91.55
2016-05-25T00:26:05.617Z,91.36
2016-05-25T00:27:05.620Z,91.21
2016-05-25T00:28:05.607Z,91.5
2016-05-25T00:29:05.610Z,91.21
2016-05-25T00:30:05.612Z,91.31
2016-05-25T00:31:05.631Z,91.5
2016-05-25T00:32:05.461Z,91.69
2016-05-25T00:33:05.620Z,91.5
2016-05-25T00:34:05.623Z,91.5
2016-05-25T00:35:05.610Z,90.73
2016-05-25T00:36:05.628Z,90.64
2016-05-25T00:37:05.599Z,91.02
2016-05-25T00:38:05.619Z,90.73
2016-05-25T00:39:05.606Z,90.69
2016-05-25T00:40:05.608Z,90.45
2016-05-25T00:41:05.611Z,90.64
2016-05-25T00:42:05.613Z,90.5
2016-05-25T00:43:05.616Z,91.64
2016-05-25T00:44:05.603Z,91.31
2016-05-25T00:45:05.637Z,91.12
2016-05-25T00:46:05.609Z,91.21
2016-05-25T00:47:05.455Z,91.31
2016-05-25T00:48:05.630Z,91.12
2016-05-25T00:49:05.632Z,91.69
2016-05-25T00:50:05.604Z,90.93
2016-05-25T00:51:05.622Z,91.41
2016-05-25T00:52:05.609Z,91.21
2016-05-25T00:53:05.643Z,91.5
2016-05-25T00:54:05.614Z,90.83
2016-05-25T00:55:05.618Z,90.93
2016-05-25T00:56:05.604Z,91.5
2016-05-25T00:57:05.638Z,91.07
2016-05-25T00:58:05.609Z,91.17
2016-05-25T00:59:05.628Z,91.21
2016-05-25T01:00:05.459Z,91.21
2016-05-25T01:01:05.633Z,91.36
2016-05-25T01:02:05.620Z,91.31
2016-05-25T01:03:05.639Z,90.98
2016-05-25T01:04:05.625Z,90.36
2016-05-25T01:05:05.613Z,90.93
2016-05-25T01:06:05.615Z,90.31
2016-05-25T01:07:05.633Z,90.45
2016-05-25T01:08:05.621Z,90.83
2016-05-25T01:09:05.608Z,90.88
2016-05-25T01:10:05.455Z,91.31
2016-05-25T01:11:05.613Z,90.98
2016-05-25T01:12:05.460Z,90.93
2016-05-25T01:13:05.618Z,91.07
2016-05-25T01:14:05.621Z,91.41
2016-05-25T01:15:05.608Z,91.12
2016-05-25T01:16:05.673Z,91.6
2016-05-25T01:17:05.629Z,91.55
2016-05-25T01:18:05.616Z,91.55
2016-05-25T01:19:05.619Z,92.12
2016-05-25T01:20:05.621Z,91.98
2016-05-25T01:21:05.624Z,91.6
2016-05-25T01:22:05.643Z,91.5
2016-05-25T01:23:05.614Z,91.31
2016-05-25T01:24:05.617Z,92.36
2016-05-25T01:25:05.620Z,91.88
2016-05-25T01:26:05.622Z,90.83
2016-05-25T01:27:05.626Z,91.31
2016-05-25T01:28:05.456Z,91.36
2016-05-25T01:29:05.615Z,91.69
2016-05-25T01:30:05.461Z,91.41
2016-05-25T01:31:05.620Z,91.21
2016-05-25T01:32:05.467Z,90.79
2016-05-25T01:33:05.610Z,90.83
2016-05-25T01:34:05.613Z,90.93
2016-05-25T01:35:05.616Z,91.02
2016-05-25T01:36:05.618Z,91.12
2016-05-25T01:37:05.621Z,90.73
2016-05-25T01:38:05.623Z,90.98
2016-05-25T01:39:05.626Z,91.02
2016-05-25T01:40:05.614Z,91.55
2016-05-25T01:41:05.616Z,91.21
2016-05-25T01:42:05.619Z,91.02
2016-05-25T01:43:05.621Z,91.5
2016-05-25T01:44:05.624Z,91.21
2016-05-25T01:45:05.611Z,91.69
2016-05-25T01:46:05.613Z,91.55
2016-05-25T01:47:05.616Z,91.83
2016-05-25T01:48:05.619Z,91.55
2016-05-25T01:49:05.622Z,91.27
2016-05-25T01:50:05.624Z,91.21
2016-05-25T01:51:05.626Z,91.46
2016-05-25T01:52:05.615Z,91.12
2016-05-25T01:53:05.476Z,91.21
2016-05-25T01:54:05.620Z,91.12
2016-05-25T01:55:05.622Z,90.45
2016-05-25T01:56:05.625Z,90.73
2016-05-25T01:57:05.628Z,90.45
2016-05-25T01:58:05.630Z,90.64
2016-05-25T01:59:05.633Z,90.45
2016-05-25T02:00:05.620Z,90.79
2016-05-25T02:01:05.779Z,91.5
2016-05-25T02:02:05.782Z,90.73
2016-05-25T02:03:05.628Z,90.55
2016-05-25T02:04:05.615Z,90.5
2016-05-25T02:05:05.633Z,90.17
2016-05-25T02:06:05.636Z,90.03
2016-05-25T02:07:05.623Z,89.69
2016-05-25T02:08:05.485Z,90.17
2016-05-25T02:09:05.628Z,90.69
2016-05-25T02:10:05.647Z,90.93
2016-05-25T02:11:05.619Z,89.93
2016-05-25T02:12:05.622Z,89.88
2016-05-25T02:13:05.624Z,89.93
2016-05-25T02:14:05.627Z,89.54
2016-05-25T02:15:05.629Z,89.54
2016-05-25T02:16:05.616Z,89.4
2016-05-25T02:17:05.931Z,89.59
2016-05-25T02:18:05.621Z,88.98
2016-05-25T02:19:05.624Z,89.17
2016-05-25T02:20:05.643Z,88.92
2016-05-25T02:21:05.489Z,89.59
2016-05-25T02:22:05.632Z,89.21
2016-05-25T02:23:05.651Z,89.78
2016-05-25T02:24:05.623Z,89.21
2016-05-25T02:25:05.640Z,89.02
2016-05-25T02:26:05.628Z,89.12
2016-05-25T02:27:05.630Z,89.12
2016-05-25T02:28:05.633Z,89.31
2016-05-25T02:29:05.635Z,89.02
2016-05-25T02:30:05.638Z,88.92
2016-05-25T02:31:05.641Z,89.4
2016-05-25T02:32:06.112Z,88.83
2016-05-25T02:33:05.631Z,88.92
2016-05-25T02:34:05.634Z,89.5
2016-05-25T02:35:05.636Z,89.88
2016-05-25T02:36:05.639Z,89.69
2016-05-25T02:37:05.641Z,90.22
2016-05-25T02:38:05.628Z,89.69
2016-05-25T02:39:05.630Z,89.88
2016-05-25T02:40:05.650Z,90.36
2016-05-25T02:41:05.496Z,89.97
2016-05-25T02:42:05.483Z,89.88
2016-05-25T02:43:05.502Z,90.36
2016-05-25T02:44:05.629Z,89.88
2016-05-25T02:45:05.647Z,90.93
2016-05-25T02:46:05.650Z,90.45
2016-05-25T02:47:05.480Z,90.73
2016-05-25T02:48:05.483Z,91.12
2016-05-25T02:49:05.642Z,90.64
2016-05-25T02:50:05.629Z,90.55
2016-05-25T02:51:05.649Z,90.64
2016-05-25T02:52:05.634Z,90.45
2016-05-25T02:53:05.638Z,90.73
2016-05-25T02:54:05.484Z,90.73
2016-05-25T02:55:05.471Z,90.73
2016-05-25T02:56:05.630Z,90.93
2016-05-25T02:57:05.632Z,91.12
2016-05-25T02:58:05.635Z,90.64
2016-05-25T02:59:05.637Z,90.69
2016-05-25T03:00:05.640Z,90.31
2016-05-25T03:01:05.643Z,90.73
2016-05-25T03:02:05.631Z,90.98
2016-05-25T03:03:05.680Z,91.5
2016-05-25T03:04:05.636Z,91.17
2016-05-25T03:05:05.638Z,91.07
2016-05-25T03:06:06.095Z,91.02
2016-05-25T03:07:05.628Z,91.17
2016-05-25T03:08:05.631Z,91.17
2016-05-25T03:09:05.633Z,91.17
2016-05-25T03:10:05.636Z,91.46
2016-05-25T03:11:05.638Z,91.31
2016-05-25T03:12:05.627Z,91.27
2016-05-25T03:13:05.644Z,91.36
2016-05-25T03:14:05.632Z,91.36
2016-05-25T03:15:05.634Z,91.02
2016-05-25T03:16:05.480Z,91.41
2016-05-25T03:17:06.077Z,91.12
2016-05-25T03:18:05.643Z,90.64
2016-05-25T03:19:05.488Z,90.45
2016-05-25T03:20:05.632Z,90.26
2016-05-25T03:21:05.635Z,90.69
2016-05-25T03:22:05.638Z,90.83
2016-05-25T03:23:05.640Z,90.93
2016-05-25T03:24:05.627Z,91.21
2016-05-25T03:25:05.630Z,91.21
2016-05-25T03:26:05.633Z,91.69
2016-05-25T03:27:05.667Z,91.21
2016-05-25T03:28:05.638Z,91.5
2016-05-25T03:29:05.812Z,91.6
2016-05-25T03:30:05.471Z,91.12
2016-05-25T03:31:05.631Z,91.98
2016-05-25T03:32:05.648Z,92.03
2016-05-25T03:33:05.636Z,92.26
2016-05-25T03:34:05.482Z,92.12
2016-05-25T03:35:05.625Z,91.69
2016-05-25T03:36:05.628Z,92.07
2016-05-25T03:37:05.631Z,92.17
2016-05-25T03:38:05.477Z,92.07
2016-05-25T03:39:05.636Z,91.6
2016-05-25T03:40:05.639Z,91.88
2016-05-25T03:41:05.641Z,92.26
2016-05-25T03:42:05.472Z,92.07
2016-05-25T03:43:05.475Z,92.03
2016-05-25T03:44:05.633Z,91.98
2016-05-25T03:45:05.636Z,92.26
2016-05-25T03:46:05.639Z,91.88
2016-05-25T03:47:05.783Z,92.74
2016-05-25T03:48:05.642Z,91.88
2016-05-25T03:49:05.630Z,91.83
2016-05-25T03:50:05.647Z,91.88
2016-05-25T03:51:05.635Z,92.07
2016-05-25T03:52:05.637Z,92.65
2016-05-25T03:53:05.640Z,92.36
2016-05-25T03:54:05.658Z,92.32
2016-05-25T03:55:05.629Z,91.93
2016-05-25T03:56:05.633Z,91.83
2016-05-25T03:57:05.635Z,91.88
2016-05-25T03:58:05.482Z,92.17
2016-05-25T03:59:05.641Z,92.17
2016-05-25T04:00:05.644Z,91.88
2016-05-25T04:01:05.631Z,92.03
2016-05-25T04:02:05.664Z,92.07
2016-05-25T04:03:05.652Z,92.12
2016-05-25T04:04:05.639Z,91.07
2016-05-25T04:05:05.642Z,91.55
2016-05-25T04:06:05.645Z,91.17
2016-05-25T04:07:05.647Z,91.83
2016-05-25T04:08:05.649Z,91.46
2016-05-25T04:09:05.653Z,91.17
2016-05-25T04:10:05.639Z,91.17
2016-05-25T04:11:05.642Z,91.46
2016-05-25T04:12:05.706Z,91.83
2016-05-25T04:13:05.647Z,91.88
2016-05-25T04:14:05.478Z,91.55
2016-05-25T04:15:05.653Z,91.5
2016-05-25T04:16:05.655Z,91.31
2016-05-25T04:17:06.158Z,91.6
2016-05-25T04:18:05.644Z,91.12
2016-05-25T04:19:05.647Z,90.36
2016-05-25T04:20:05.658Z,90.55
2016-05-25T04:21:05.700Z,90.45
2016-05-25T04:22:05.726Z,91.12
2016-05-25T04:23:05.738Z,90.83
2016-05-25T04:24:05.764Z,90.93
2016-05-25T04:25:05.775Z,90.93
2016-05-25T04:26:05.771Z,90.36
2016-05-25T04:27:05.798Z,90.73
2016-05-25T04:28:05.793Z,90.83
2016-05-25T04:29:05.804Z,89.97
2016-05-25T04:30:07.826Z,89.88
2016-05-25T04:31:05.832Z,89.78
2016-05-25T04:32:06.181Z,89.4
2016-05-25T04:33:05.827Z,89.4
2016-05-25T04:34:05.817Z,89.4
2016-05-25T04:35:07.650Z,89.59
2016-05-25T04:36:05.824Z,89.21
2016-05-25T04:37:05.814Z,89.78
2016-05-25T04:38:05.832Z,89.4
2016-05-25T04:39:05.822Z,89.31
2016-05-25T04:40:08.403Z,89.21
2016-05-25T04:41:05.842Z,89.97
2016-05-25T04:42:05.815Z,89.31
2016-05-25T04:43:05.834Z,89.21
2016-05-25T04:44:05.836Z,89.12
2016-05-25T04:45:07.621Z,88.73
2016-05-25T04:46:05.826Z,89.21
2016-05-25T04:47:06.642Z,88.88
2016-05-25T04:48:05.832Z,88.88
2016-05-25T04:49:05.850Z,88.92
2016-05-25T04:50:05.822Z,88.31
2016-05-25T04:51:05.825Z,88.31
2016-05-25T04:52:05.842Z,87.93
2016-05-25T04:53:05.830Z,88.45
2016-05-25T04:54:05.832Z,88.12
2016-05-25T04:55:05.836Z,88.31
2016-05-25T04:56:05.681Z,88.26
2016-05-25T04:57:05.824Z,88.12
2016-05-25T04:58:05.827Z,88.02
2016-05-25T04:59:05.830Z,88.45
2016-05-25T05:00:05.833Z,87.59
2016-05-25T05:01:05.836Z,87.87
2016-05-25T05:02:05.666Z,87.49
2016-05-25T05:03:05.872Z,87.21
2016-05-25T05:04:05.844Z,86.92
2016-05-25T05:05:05.830Z,86.92
2016-05-25T05:06:05.833Z,86.73
2016-05-25T05:07:05.663Z,86.82
2016-05-25T05:08:05.838Z,87.21
2016-05-25T05:09:05.841Z,87.21
2016-05-25T05:10:05.828Z,86.54
2016-05-25T05:11:05.815Z,86.82
2016-05-25T05:12:05.834Z,86.54
2016-05-25T05:13:05.837Z,86.73
2016-05-25T05:14:05.839Z,86.54
2016-05-25T05:15:05.842Z,86.54
2016-05-25T05:16:05.813Z,86.06
2016-05-25T05:17:05.848Z,86.06
2016-05-25T05:18:05.818Z,85.68
2016-05-25T05:19:05.821Z,85.39
2016-05-25T05:20:05.667Z,85.39
2016-05-25T05:21:05.843Z,85.21
2016-05-25T05:22:05.829Z,84.53
2016-05-25T05:23:05.817Z,84.53
2016-05-25T05:24:05.834Z,84.53
2016-05-25T05:25:05.822Z,84.44
2016-05-25T05:26:05.825Z,84.63
2016-05-25T05:27:05.828Z,84.44
2016-05-25T05:28:05.674Z,84.34
2016-05-25T05:29:05.848Z,84.53
2016-05-25T05:30:05.819Z,84.25
2016-05-25T05:31:05.838Z,83.96
2016-05-25T05:32:05.685Z,84.25
2016-05-25T05:33:05.828Z,83.67
2016-05-25T05:34:05.830Z,83.29
2016-05-25T05:35:05.833Z,83.29
2016-05-25T05:36:05.836Z,83.58
2016-05-25T05:37:05.824Z,83.2
2016-05-25T05:38:05.841Z,82.91
2016-05-25T05:39:05.829Z,82.29
2016-05-25T05:40:05.831Z,81.86
2016-05-25T05:41:05.834Z,82.48
2016-05-25T05:42:05.837Z,82.63
2016-05-25T05:43:05.823Z,82.53
2016-05-25T05:44:05.826Z,82.67
2016-05-25T05:45:05.828Z,82.57
2016-05-25T05:46:07.473Z,82.67
2016-05-25T05:47:05.834Z,82.53
2016-05-25T05:48:05.853Z,81.71
2016-05-25T05:49:05.840Z,79.99
2016-05-25T05:50:05.670Z,79.8
2016-05-25T05:51:06.564Z,79.9
2016-05-25T05:52:05.832Z,80.28
2016-05-25T05:53:05.678Z,79.9
2016-05-25T05:54:05.837Z,79.33
2016-05-25T05:55:05.699Z,78.47
2016-05-25T05:56:07.203Z,78.47
2016-05-25T05:57:08.830Z,79.43
2016-05-25T05:58:05.833Z,78.85
2016-05-25T05:59:05.836Z,78.75
2016-05-25T06:00:05.838Z,77.89
2016-05-25T06:01:07.466Z,77.42
2016-05-25T06:02:05.983Z,77.99
2016-05-25T06:03:05.861Z,77.99
2016-05-25T06:04:05.692Z,77.8
2016-05-25T06:05:05.835Z,78.18
2016-05-25T06:06:05.869Z,77.61
2016-05-25T06:07:05.857Z,77.99
2016-05-25T06:08:05.843Z,77.7
2016-05-25T06:09:05.847Z,77.99
2016-05-25T06:10:05.849Z,77.89
2016-05-25T06:11:05.868Z,77.8
2016-05-25T06:12:05.855Z,77.7
2016-05-25T06:13:05.857Z,77.99
2016-05-25T06:14:05.844Z,77.74
2016-05-25T06:15:05.846Z,78.09
2016-05-25T06:16:05.849Z,78.09
2016-05-25T06:17:06.149Z,78.28
2016-05-25T06:18:05.854Z,79.04
2016-05-25T06:19:05.858Z,79.33
2016-05-25T06:20:05.860Z,79.61
2016-05-25T06:21:05.847Z,79.8
2016-05-25T06:22:05.851Z,79.8
2016-05-25T06:23:05.853Z,79.8
2016-05-25T06:24:05.856Z,79.61
2016-05-25T06:25:05.703Z,79.9
2016-05-25T06:26:05.845Z,79.43
2016-05-25T06:27:05.848Z,79.14
2016-05-25T06:28:05.850Z,78.47
2016-05-25T06:29:05.853Z,78.13
2016-05-25T06:30:05.855Z,77.89
2016-05-25T06:31:05.858Z,78.41
2016-05-25T06:32:05.846Z,77.84
2016-05-25T06:33:05.864Z,77.45
2016-05-25T06:34:05.852Z,77.26
2016-05-25T06:35:05.855Z,77.08
2016-05-25T06:36:05.872Z,76.98
2016-05-25T06:37:05.860Z,77.08
2016-05-25T06:38:05.863Z,76.88
2016-05-25T06:39:05.865Z,76.4
2016-05-25T06:40:05.868Z,76.31
2016-05-25T06:41:05.713Z,75.74
2016-05-25T06:42:05.702Z,75.45
2016-05-25T06:43:05.860Z,75.54
2016-05-25T06:44:05.863Z,76.4
2016-05-25T06:45:05.881Z,75.74
2016-05-25T06:46:05.868Z,75.54
2016-05-25T06:47:06.057Z,75.35
2016-05-25T06:48:05.873Z,75.93
2016-05-25T06:49:05.876Z,75.07
2016-05-25T06:50:05.878Z,74.24
2016-05-25T06:51:05.866Z,74.24
2016-05-25T06:52:05.868Z,74.24
2016-05-25T06:53:05.886Z,73.25
2016-05-25T06:54:05.874Z,73.83
2016-05-25T06:55:05.720Z,74.4
2016-05-25T06:56:05.879Z,73.96
2016-05-25T06:57:05.882Z,73.73
2016-05-25T06:58:05.728Z,73.73
2016-05-25T06:59:05.887Z,73.44
2016-05-25T07:00:05.874Z,73.92
2016-05-25T07:01:05.908Z,74.11
2016-05-25T07:02:05.802Z,74.73
2016-05-25T07:03:05.883Z,74.11
2016-05-25T07:04:05.885Z,73.77
2016-05-25T07:05:05.888Z,73.73
2016-05-25T07:06:05.891Z,74.3
2016-05-25T07:07:05.924Z,74.05
2016-05-25T07:08:05.896Z,74.3
2016-05-25T07:09:05.914Z,74.63
2016-05-25T07:10:05.901Z,74.49
2016-05-25T07:11:05.732Z,74.24
2016-05-25T07:12:05.891Z,74.24
2016-05-25T07:13:05.893Z,74.21
2016-05-25T07:14:05.927Z,74.15
2016-05-25T07:15:05.915Z,73.54
2016-05-25T07:16:05.745Z,73.96
2016-05-25T07:17:06.279Z,73.77
2016-05-25T07:18:05.923Z,73.86
2016-05-25T07:19:05.926Z,73.19
2016-05-25T07:20:05.928Z,73.48
2016-05-25T07:21:05.915Z,72.43
2016-05-25T07:22:05.918Z,72.53
2016-05-25T07:23:05.765Z,73
2016-05-25T07:24:05.923Z,72.91
2016-05-25T07:25:05.926Z,72.72
2016-05-25T07:26:05.928Z,72.53
2016-05-25T07:27:05.931Z,72.72
2016-05-25T07:28:05.918Z,72.72
2016-05-25T07:29:05.920Z,72.43
2016-05-25T07:30:05.767Z,72.81
2016-05-25T07:31:05.926Z,73.39
2016-05-25T07:32:05.929Z,73
2016-05-25T07:33:05.931Z,72.81
2016-05-25T07:34:05.934Z,72.53
2016-05-25T07:35:05.937Z,73.48
2016-05-25T07:36:05.783Z,73.48
2016-05-25T07:37:05.928Z,72.62
2016-05-25T07:38:05.930Z,72.33
2016-05-25T07:39:05.933Z,73
2016-05-25T07:40:05.935Z,73.19
2016-05-25T07:41:05.782Z,73.29
2016-05-25T07:42:05.924Z,72.91
2016-05-25T07:43:05.943Z,73.29
2016-05-25T07:44:05.930Z,73.77
2016-05-25T07:45:05.949Z,73.58
2016-05-25T07:46:05.779Z,73.48
2016-05-25T07:47:06.048Z,73.29
2016-05-25T07:48:05.941Z,72.53
2016-05-25T07:49:05.943Z,72.72
2016-05-25T07:50:05.947Z,73.48
2016-05-25T07:51:05.793Z,72.81
2016-05-25T07:52:05.952Z,71.57
2016-05-25T07:53:05.954Z,71.86
2016-05-25T07:54:05.942Z,72.14
2016-05-25T07:55:05.835Z,72.14
2016-05-25T07:56:05.963Z,71.95
2016-05-25T07:57:05.965Z,72.08
2016-05-25T07:58:10.123Z,71.32
2016-05-25T07:59:05.815Z,71.51
2016-05-25T08:00:05.973Z,71.13
2016-05-25T08:01:05.960Z,70.84
2016-05-25T08:02:05.806Z,70.65
2016-05-25T08:03:05.966Z,70.65
2016-05-25T08:04:05.969Z,70.46
2016-05-25T08:05:05.972Z,69.7
2016-05-25T08:06:05.974Z,69.89
2016-05-25T08:07:05.977Z,70.07
2016-05-25T08:08:05.980Z,69.98
2016-05-25T08:09:05.966Z,69.92
2016-05-25T08:10:05.969Z,69.25
2016-05-25T08:11:05.972Z,68.87
2016-05-25T08:12:05.975Z,68.58
2016-05-25T08:13:05.977Z,68.96
2016-05-25T08:14:05.995Z,69.31
2016-05-25T08:15:05.982Z,68.77
2016-05-25T08:16:05.985Z,68.96
2016-05-25T08:17:05.847Z,69.15
2016-05-25T08:18:05.991Z,69.06
2016-05-25T08:19:05.993Z,69.06
2016-05-25T08:20:05.996Z,68.77
2016-05-25T08:21:05.999Z,68.87
2016-05-25T08:22:06.001Z,68.96
2016-05-25T08:23:06.004Z,68.96
2016-05-25T08:24:06.007Z,68.77
2016-05-25T08:25:06.009Z,69.44
2016-05-25T08:26:06.012Z,69.06
2016-05-25T08:27:06.014Z,68.93
2016-05-25T08:28:06.017Z,69.02
2016-05-25T08:29:06.020Z,69.31
2016-05-25T08:30:06.023Z,69.54
2016-05-25T08:31:06.009Z,69.82
2016-05-25T08:32:06.028Z,69.73
2016-05-25T08:33:06.015Z,70.21
2016-05-25T08:34:06.050Z,69.44
2016-05-25T08:35:06.020Z,69.44
2016-05-25T08:36:06.023Z,69.7
2016-05-25T08:37:06.025Z,69.64
2016-05-25T08:38:05.889Z,69.7
2016-05-25T08:39:06.031Z,69.35
2016-05-25T08:40:06.050Z,69.25
2016-05-25T08:41:06.052Z,69.44
2016-05-25T08:42:06.055Z,69.35
2016-05-25T08:43:06.074Z,69.06
2016-05-25T08:44:06.060Z,68.96
2016-05-25T08:45:06.063Z,69.06
2016-05-25T08:46:06.050Z,68.77
2016-05-25T08:47:06.068Z,68.58
2016-05-25T08:48:06.055Z,68.49
2016-05-25T08:49:06.074Z,68.2
2016-05-25T08:50:06.060Z,67.63
2016-05-25T08:51:06.063Z,66.51
2016-05-25T08:52:06.066Z,65.94
2016-05-25T08:53:06.069Z,65.65
2016-05-25T08:54:06.071Z,65.65
2016-05-25T08:55:06.059Z,65.55
2016-05-25T08:56:06.077Z,65.55
2016-05-25T08:57:06.079Z,65.94
2016-05-25T08:58:06.082Z,66.32
2016-05-25T08:59:06.085Z,67.08
2016-05-25T09:00:06.088Z,65.65
2016-05-25T09:01:06.090Z,65.65
2016-05-25T09:02:06.890Z,65.26
2016-05-25T09:03:06.096Z,64.69
2016-05-25T09:04:06.098Z,64.79
2016-05-25T09:05:06.100Z,63.93
2016-05-25T09:06:06.089Z,64.02
2016-05-25T09:07:06.106Z,64.22
2016-05-25T09:08:06.109Z,64.31
2016-05-25T09:09:06.097Z,64.53
2016-05-25T09:10:06.114Z,64.5
2016-05-25T09:11:06.117Z,64.88
2016-05-25T09:12:06.105Z,65.08
2016-05-25T09:13:06.108Z,65.55
2016-05-25T09:14:06.110Z,65.74
2016-05-25T09:15:06.113Z,64.98
2016-05-25T09:16:06.116Z,65.36
2016-05-25T09:17:06.416Z,65.55
2016-05-25T09:18:06.135Z,64.88
2016-05-25T09:19:06.139Z,64.69
2016-05-25T09:20:06.141Z,64.88
2016-05-25T09:21:06.129Z,65.11
2016-05-25T09:22:06.132Z,65.3
2016-05-25T09:23:06.135Z,64.63
2016-05-25T09:24:06.137Z,64.43
2016-05-25T09:25:06.155Z,64.25
2016-05-25T09:26:06.157Z,64.15
2016-05-25T09:27:06.160Z,63.86
2016-05-25T09:28:06.162Z,64.43
2016-05-25T09:29:06.150Z,64.43
2016-05-25T09:30:06.168Z,64.88
2016-05-25T09:31:05.999Z,65.01
2016-05-25T09:32:06.159Z,65.01
2016-05-25T09:33:06.161Z,65.11
2016-05-25T09:34:06.007Z,65.3
2016-05-25T09:35:06.167Z,65.01
2016-05-25T09:36:06.184Z,64.82
2016-05-25T09:37:06.172Z,64.63
2016-05-25T09:38:06.174Z,64.72
2016-05-25T09:39:06.178Z,64.72
2016-05-25T09:40:06.195Z,65.11
2016-05-25T09:41:06.182Z,65.3
2016-05-25T09:42:06.201Z,65.11
2016-05-25T09:43:06.189Z,65.65
2016-05-25T09:44:06.191Z,64.92
2016-05-25T09:45:06.036Z,64.92
2016-05-25T09:46:06.196Z,64.34
2016-05-25T09:47:06.214Z,65.01
2016-05-25T09:48:06.202Z,64.63
2016-05-25T09:49:06.251Z,64.72
2016-05-25T09:50:06.207Z,64.05
2016-05-25T09:51:06.210Z,63.76
2016-05-25T09:52:06.227Z,63.96
2016-05-25T09:53:07.433Z,63.48
2016-05-25T09:54:06.233Z,63.48
2016-05-25T09:55:06.220Z,63.19
2016-05-25T09:56:06.223Z,62.81
2016-05-25T09:57:06.225Z,62.81
2016-05-25T09:58:06.229Z,63.1
2016-05-25T09:59:06.246Z,63.29
2016-05-25T10:00:06.248Z,63.67
2016-05-25T10:01:06.251Z,63
2016-05-25T10:02:06.551Z,62.33
2016-05-25T10:03:06.117Z,62.36
2016-05-25T10:04:06.244Z,61.98
2016-05-25T10:05:06.262Z,61.88
2016-05-25T10:06:06.250Z,61.69
2016-05-25T10:07:06.267Z,61.79
2016-05-25T10:08:06.270Z,61.98
2016-05-25T10:09:06.273Z,61.5
2016-05-25T10:10:06.261Z,63.22
2016-05-25T10:11:06.278Z,62.74
2016-05-25T10:12:06.281Z,62.36
2016-05-25T10:13:06.284Z,62.17
2016-05-25T10:14:06.286Z,62.55
2016-05-25T10:15:06.289Z,62.62
2016-05-25T10:16:06.292Z,62.71
2016-05-25T10:17:06.311Z,62.36
2016-05-25T10:18:06.298Z,62.17
2016-05-25T10:19:06.300Z,62.07
2016-05-25T10:20:06.318Z,62.65
2016-05-25T10:21:06.290Z,61.88
2016-05-25T10:22:06.324Z,62.74
2016-05-25T10:23:06.311Z,61.21
2016-05-25T10:24:06.313Z,62.07
2016-05-25T10:25:06.317Z,61.21
2016-05-25T10:26:06.335Z,60.73
2016-05-25T10:27:06.321Z,60.64
2016-05-25T10:28:06.341Z,61.21
2016-05-25T10:29:06.327Z,61.88
2016-05-25T10:30:06.329Z,61.98
2016-05-25T10:31:06.379Z,61.69
2016-05-25T10:32:06.351Z,62.17
2016-05-25T10:33:06.354Z,61.4
2016-05-25T10:34:06.340Z,60.86
2016-05-25T10:35:06.343Z,60
2016-05-25T10:36:06.206Z,60
2016-05-25T10:37:06.348Z,59.71
2016-05-25T10:38:06.211Z,59.33
2016-05-25T10:39:06.214Z,58.94
2016-05-25T10:40:06.372Z,58.75
2016-05-25T10:41:06.266Z,58.3
2016-05-25T10:42:06.222Z,58.87
2016-05-25T10:43:06.225Z,57.82
2016-05-25T10:44:06.242Z,58.01
2016-05-25T10:45:06.385Z,57.75
2016-05-25T10:46:06.388Z,56.6
2016-05-25T10:47:06.391Z,56.51
2016-05-25T10:48:06.394Z,55.67
2016-05-25T10:49:06.397Z,56.05
2016-05-25T10:50:06.399Z,55.1
2016-05-25T10:51:06.418Z,55.57
2016-05-25T10:52:06.421Z,55.38
2016-05-25T10:53:06.424Z,55.47
2016-05-25T10:54:06.426Z,54.42
2016-05-25T10:55:06.429Z,53.75
2016-05-25T10:56:06.432Z,53.87
2016-05-25T10:57:06.434Z,51.98
2016-05-25T10:58:06.437Z,51.79
2016-05-25T10:59:06.454Z,52.65
2016-05-25T11:00:06.457Z,52.94
2016-05-25T11:01:06.460Z,52.53
2016-05-25T11:02:06.493Z,52.62
2016-05-25T11:03:06.529Z,52.62
2016-05-25T11:04:06.468Z,52.53
2016-05-25T11:05:06.331Z,53.2
2016-05-25T11:06:06.490Z,53.01
2016-05-25T11:07:06.492Z,52.53
2016-05-25T11:08:06.495Z,53.58
2016-05-25T11:09:06.497Z,53.11
2016-05-25T11:10:06.500Z,52.43
2016-05-25T11:11:06.503Z,52.05
2016-05-25T11:12:06.506Z,51.98
2016-05-25T11:13:06.523Z,52.05
2016-05-25T11:14:06.525Z,52.24
2016-05-25T11:15:06.528Z,51.76
2016-05-25T11:16:06.531Z,52.46
2016-05-25T11:17:07.894Z,52.65
2016-05-25T11:18:06.397Z,52.17
2016-05-25T11:19:06.556Z,52.55
2016-05-25T11:20:06.558Z,52.84
2016-05-25T11:21:06.560Z,52.84
2016-05-25T11:22:09.033Z,52.65
2016-05-25T11:23:06.566Z,52.94
2016-05-25T11:24:06.585Z,53.03
2016-05-25T11:25:06.415Z,53.23
2016-05-25T11:26:06.591Z,52.46
2016-05-25T11:27:06.593Z,53.52
2016-05-25T11:28:06.470Z,53.3
2016-05-25T11:29:06.613Z,53.11
2016-05-25T11:30:06.616Z,52.43
2016-05-25T11:31:06.603Z,52.26
2016-05-25T11:32:07.184Z,52.46
2016-05-25T11:33:06.484Z,52.65
2016-05-25T11:34:06.643Z,51.88
2016-05-25T11:35:06.833Z,51.31
2016-05-25T11:36:06.632Z,51.04
2016-05-25T11:37:06.650Z,50.66
2016-05-25T11:38:06.654Z,50.63
2016-05-25T11:39:06.656Z,51.21
2016-05-25T11:40:06.659Z,52.17
2016-05-25T11:41:06.662Z,53.49
2016-05-25T11:42:06.523Z,53.68
2016-05-25T11:43:06.526Z,53.85
2016-05-25T11:44:06.528Z,53.94
2016-05-25T11:45:06.703Z,53.87
2016-05-25T11:46:06.691Z,53.46
2016-05-25T11:47:06.694Z,53.94
2016-05-25T11:48:06.712Z,55.47
2016-05-25T11:49:06.558Z,54.71
2016-05-25T11:50:06.717Z,55.1
2016-05-25T11:51:06.719Z,55.38
2016-05-25T11:52:06.722Z,55.07
2016-05-25T11:53:06.725Z,55.26
2016-05-25T11:54:06.727Z,55.47
2016-05-25T11:55:06.730Z,55.29
2016-05-25T11:56:06.733Z,55.57
2016-05-25T11:57:06.751Z,55.67
2016-05-25T11:58:06.754Z,56.98
2016-05-25T11:59:06.616Z,56.51
2016-05-25T12:00:06.807Z,57.08
2016-05-25T12:01:06.762Z,58.14
2016-05-25T12:02:07.327Z,56.7
2016-05-25T12:03:06.783Z,57.08
2016-05-25T12:04:06.786Z,59.83
2016-05-25T12:05:06.788Z,61.75
2016-05-25T12:06:06.634Z,60.7
2016-05-25T12:07:06.637Z,58.14
2016-05-25T12:08:06.796Z,57.92
2016-05-25T12:09:06.799Z,57.85
2016-05-25T12:10:06.802Z,57.18
2016-05-25T12:11:06.804Z,57.28
2016-05-25T12:12:06.838Z,58.14
2016-05-25T12:13:06.810Z,59.77
2016-05-25T12:14:06.656Z,58.14
2016-05-25T12:15:06.659Z,58.04
2016-05-25T12:16:06.817Z,57.85
2016-05-25T12:17:07.883Z,57.75
2016-05-25T12:18:07.355Z,56.79
2016-05-25T12:19:06.842Z,56.79
2016-05-25T12:20:06.845Z,56.89
2016-05-25T12:21:06.863Z,56.76
2016-05-25T12:22:09.256Z,57.53
2016-05-25T12:23:06.869Z,56.6
2016-05-25T12:24:06.871Z,56.98
2016-05-25T12:25:06.874Z,57.95
2016-05-25T12:26:06.860Z,58.04
2016-05-25T12:27:06.863Z,56.89
2016-05-25T12:28:06.866Z,56.31
2016-05-25T12:29:06.869Z,57.37
2016-05-25T12:30:06.887Z,60.22
2016-05-25T12:31:06.874Z,57.18
2016-05-25T12:32:06.892Z,57.18
2016-05-25T12:33:06.879Z,58.14
2016-05-25T12:34:06.898Z,60.63
2016-05-25T12:35:06.901Z,59.38
2016-05-25T12:36:06.731Z,57.08
2016-05-25T12:37:06.906Z,56.02
2016-05-25T12:38:06.909Z,56.24
2016-05-25T12:39:06.943Z,55.47
2016-05-25T12:40:07.211Z,55.19
2016-05-25T12:41:06.854Z,54.8
2016-05-25T12:42:06.825Z,54.45
2016-05-25T12:43:08.000Z,54.9
2016-05-25T12:44:06.815Z,56.56
2016-05-25T12:45:07.146Z,55.6
2016-05-25T12:46:07.133Z,55.22
2016-05-25T12:47:07.901Z,53.8
2016-05-25T12:48:07.154Z,53.52
2016-05-25T12:49:06.954Z,53.9
2016-05-25T12:50:07.004Z,52.55
2016-05-25T12:51:06.990Z,51.98
2016-05-25T12:52:07.149Z,51.59
2016-05-25T12:53:07.011Z,51.4
2016-05-25T12:54:06.983Z,51.31
2016-05-25T12:55:07.142Z,50.76